Time;durP1;ratioP1;P1;durP2;ratioP2;P2;SDS_P1;SDS_P2;PMS_P1;PMS_P2;Temp;Humidity;BMP_temperature;BMP_pressure;BME280_temperature;BME280_humidity;BME280_pressure;Samples;Min_cycle;Max_cycle;Signal;HPM_P1;HPM_P2
2022/07/13 00:02:19;;;;;;;;;;;19.00;58.60;;;;;;5026281;28;88821;-55
2022/07/13 00:04:44;;;;;;;;;;;18.90;58.60;;;;;;5024477;28;86447;-60
2022/07/13 00:07:10;;;;;;;;;;;18.90;58.50;;;;;;5024065;28;86978;-58
2022/07/13 00:09:35;;;;;;;;;;;18.90;58.50;;;;;;5023401;28;87050;-55
2022/07/13 00:12:01;;;;;;;;;;;18.90;58.60;;;;;;5023120;28;88021;-53
2022/07/13 00:14:26;;;;;;;;;;;18.90;58.60;;;;;;5023632;28;88485;-56
2022/07/13 00:16:52;;;;;;;;;;;18.80;58.60;;;;;;5023418;28;88103;-56
2022/07/13 00:19:18;;;;;;;;;;;18.80;58.60;;;;;;5023501;28;87131;-55
2022/07/13 00:21:43;;;;;;;;;;;18.80;58.60;;;;;;5023804;28;87528;-57
2022/07/13 00:24:09;;;;;;;;;;;18.80;58.60;;;;;;5026243;28;88066;-55
2022/07/13 00:26:34;;;;;;;;;;;18.80;58.60;;;;;;5023236;28;87109;-57
2022/07/13 00:29:00;;;;;;;;;;;18.80;58.50;;;;;;5022867;28;87658;-56
2022/07/13 00:31:25;;;;;;;;;;;18.80;58.50;;;;;;5023465;28;87149;-56
2022/07/13 00:33:51;;;;;;;;;;;18.80;58.50;;;;;;5023506;28;87526;-56
2022/07/13 00:36:16;;;;;;;;;;;18.70;58.60;;;;;;5022299;28;90515;-55
2022/07/13 00:38:41;;;;;;;;;;;18.70;58.60;;;;;;5023486;28;87141;-56
2022/07/13 00:41:07;;;;;;;;;;;18.70;58.60;;;;;;5023302;28;87041;-52
2022/07/13 00:43:32;;;;;;;;;;;18.70;58.60;;;;;;5022917;28;87331;-57
2022/07/13 00:45:59;;;;;;;;;;;18.70;58.60;;;;;;5026312;28;87450;-56
2022/07/13 00:48:24;;;;;;;;;;;18.70;58.50;;;;;;5022532;28;87297;-56
2022/07/13 00:50:50;;;;;;;;;;;18.60;58.50;;;;;;5022985;28;87164;-56
2022/07/13 00:53:17;;;;;;;;;;;18.60;58.50;;;;;;5023693;28;87370;-53
2022/07/13 00:55:43;;;;;;;;;;;18.60;58.50;;;;;;5022838;28;88032;-55
2022/07/13 00:58:09;;;;;;;;;;;18.60;58.50;;;;;;5022880;28;87514;-58
2022/07/13 01:00:36;;;;;;;;;;;18.60;58.50;;;;;;5022311;28;88762;-57
2022/07/13 01:03:02;;;;;;;;;;;18.60;58.40;;;;;;5022699;28;88017;-53
2022/07/13 01:05:27;;;;;;;;;;;18.50;58.40;;;;;;5023208;28;87133;-55
2022/07/13 01:07:53;;;;;;;;;;;18.60;58.40;;;;;;5025267;28;87446;-54
2022/07/13 01:10:19;;;;;;;;;;;18.50;58.40;;;;;;5022938;28;87122;-56
2022/07/13 01:12:44;;;;;;;;;;;18.50;58.40;;;;;;5022906;28;87548;-52
2022/07/13 01:15:10;;;;;;;;;;;18.50;58.40;;;;;;5022497;28;87136;-56
2022/07/13 01:17:36;;;;;;;;;;;18.40;58.40;;;;;;5023303;28;86376;-55
2022/07/13 01:20:02;;;;;;;;;;;18.40;58.40;;;;;;5022778;28;87466;-55
2022/07/13 01:22:33;;;;;;;;;;;18.40;58.40;;;;;;5022512;28;87880;-58
2022/07/13 01:24:58;;;;;;;;;;;18.40;58.40;;;;;;5021915;28;88064;-57
2022/07/13 01:27:24;;;;;;;;;;;18.30;58.30;;;;;;5025169;28;88871;-54
2022/07/13 01:29:50;;;;;;;;;;;18.40;58.30;;;;;;5022700;28;87108;-54
2022/07/13 01:32:16;;;;;;;;;;;18.30;58.30;;;;;;5022799;28;86993;-59
2022/07/13 01:34:41;;;;;;;;;;;18.40;59.00;;;;;;5022381;28;87904;-57
2022/07/13 01:37:07;;;;;;;;;;;18.30;58.40;;;;;;5022576;28;87391;-52
2022/07/13 01:39:32;;;;;;;;;;;18.30;58.30;;;;;;5022213;28;87487;-58
2022/07/13 01:41:58;;;;;;;;;;;18.30;58.40;;;;;;5022281;28;88345;-55
2022/07/13 01:44:23;;;;;;;;;;;18.30;58.40;;;;;;5022500;28;87154;-57
2022/07/13 01:46:49;;;;;;;;;;;18.20;58.40;;;;;;5022128;28;87431;-56
2022/07/13 01:49:14;;;;;;;;;;;18.30;58.30;;;;;;5024345;28;88915;-56
2022/07/13 01:51:40;;;;;;;;;;;18.30;58.30;;;;;;5022523;28;88317;-53
2022/07/13 01:54:05;;;;;;;;;;;18.20;58.30;;;;;;5022038;28;87184;-58
2022/07/13 01:56:32;;;;;;;;;;;18.20;58.30;;;;;;5022021;28;87144;-53
2022/07/13 01:58:59;;;;;;;;;;;18.20;58.30;;;;;;5022223;28;87331;-53
2022/07/13 02:01:24;;;;;;;;;;;18.20;58.30;;;;;;5021618;28;88119;-56
2022/07/13 02:03:50;;;;;;;;;;;18.10;58.20;;;;;;5022461;28;87130;-56
2022/07/13 02:06:15;;;;;;;;;;;18.10;58.20;;;;;;5022730;28;87359;-53
2022/07/13 02:08:41;;;;;;;;;;;18.10;58.30;;;;;;5021733;28;88031;-53
2022/07/13 02:11:06;;;;;;;;;;;18.10;58.30;;;;;;5024861;28;86990;-59
2022/07/13 02:13:32;;;;;;;;;;;18.10;58.30;;;;;;5020811;28;89623;-56
2022/07/13 02:15:58;;;;;;;;;;;18.10;58.30;;;;;;5020499;28;87161;-58
2022/07/13 02:18:24;;;;;;;;;;;18.10;58.40;;;;;;5022053;28;87314;-56
2022/07/13 02:20:49;;;;;;;;;;;18.00;58.30;;;;;;5021710;28;87986;-55
2022/07/13 02:23:15;;;;;;;;;;;18.00;58.40;;;;;;5021898;28;87341;-55
2022/07/13 02:25:40;;;;;;;;;;;18.00;58.20;;;;;;5021653;28;88770;-52
2022/07/13 02:28:06;;;;;;;;;;;18.00;58.30;;;;;;5021464;28;88422;-55
2022/07/13 02:30:32;;;;;;;;;;;18.00;58.20;;;;;;5022406;28;86379;-56
2022/07/13 02:32:58;;;;;;;;;;;18.00;58.30;;;;;;5024520;28;87033;-53
2022/07/13 02:35:23;;;;;;;;;;;17.90;58.20;;;;;;5021671;28;87030;-56
2022/07/13 02:37:49;;;;;;;;;;;18.00;58.20;;;;;;5021315;28;87807;-52
2022/07/13 02:40:14;;;;;;;;;;;18.00;58.20;;;;;;5021108;28;88131;-53
2022/07/13 02:42:40;;;;;;;;;;;17.90;58.20;;;;;;5021877;28;87131;-55
2022/07/13 02:45:06;;;;;;;;;;;17.90;58.20;;;;;;5021773;28;87422;-53
2022/07/13 02:47:31;;;;;;;;;;;17.90;58.30;;;;;;5020869;28;88042;-56
2022/07/13 02:49:57;;;;;;;;;;;17.90;58.20;;;;;;5021902;28;87124;-55
2022/07/13 02:52:22;;;;;;;;;;;17.80;58.20;;;;;;5022809;28;87849;-53
2022/07/13 02:54:48;;;;;;;;;;;17.90;58.30;;;;;;5028035;28;87273;-56
2022/07/13 02:57:13;;;;;;;;;;;17.80;58.20;;;;;;5024998;28;86881;-55
2022/07/13 02:59:39;;;;;;;;;;;17.80;58.20;;;;;;5024559;28;88164;-56
2022/07/13 03:02:05;;;;;;;;;;;17.80;58.10;;;;;;5024362;28;88147;-56
2022/07/13 03:04:31;;;;;;;;;;;17.70;58.20;;;;;;5024900;28;88366;-53
2022/07/13 03:06:57;;;;;;;;;;;17.70;58.10;;;;;;5024326;28;88349;-56
2022/07/13 03:09:22;;;;;;;;;;;17.70;58.20;;;;;;5025003;28;86867;-56
2022/07/13 03:11:48;;;;;;;;;;;17.70;58.20;;;;;;5024377;28;87458;-57
2022/07/13 03:14:13;;;;;;;;;;;17.70;58.20;;;;;;5024475;28;87902;-57
2022/07/13 03:16:39;;;;;;;;;;;17.70;58.20;;;;;;5027752;28;87268;-55
2022/07/13 03:19:04;;;;;;;;;;;17.70;58.20;;;;;;5024970;28;87337;-58
2022/07/13 03:21:30;;;;;;;;;;;17.70;58.10;;;;;;5024625;28;86998;-54
2022/07/13 03:23:56;;;;;;;;;;;17.60;58.10;;;;;;5024728;28;87443;-51
2022/07/13 03:26:21;;;;;;;;;;;17.60;58.20;;;;;;5023688;28;89195;-54
2022/07/13 03:28:47;;;;;;;;;;;17.60;58.10;;;;;;5023044;28;87090;-51
2022/07/13 03:31:13;;;;;;;;;;;17.60;58.20;;;;;;5024496;28;87413;-56
2022/07/13 03:33:38;;;;;;;;;;;17.60;58.20;;;;;;5024233;28;88024;-54
2022/07/13 03:36:04;;;;;;;;;;;17.60;58.20;;;;;;5027370;28;87220;-55
2022/07/13 03:38:29;;;;;;;;;;;17.50;58.10;;;;;;5024260;28;88305;-55
2022/07/13 03:40:55;;;;;;;;;;;17.50;58.20;;;;;;5024333;28;86962;-52
2022/07/13 03:43:20;;;;;;;;;;;17.50;58.20;;;;;;5024701;28;87290;-52
2022/07/13 03:45:46;;;;;;;;;;;17.50;58.10;;;;;;5023792;28;88655;-56
2022/07/13 03:48:13;;;;;;;;;;;17.50;58.20;;;;;;5023430;28;87110;-56
2022/07/13 03:50:39;;;;;;;;;;;17.50;58.10;;;;;;5023670;28;87899;-56
2022/07/13 03:53:04;;;;;;;;;;;17.50;58.10;;;;;;5023874;28;88058;-55
2022/07/13 03:55:30;;;;;;;;;;;17.50;58.20;;;;;;5024196;28;87709;-56
2022/07/13 03:57:56;;;;;;;;;;;17.50;58.20;;;;;;5026944;28;87544;-58
2022/07/13 04:00:21;;;;;;;;;;;17.50;58.10;;;;;;5023853;28;87098;-55
2022/07/13 04:02:47;;;;;;;;;;;17.40;58.10;;;;;;5024046;28;87318;-55
2022/07/13 04:05:12;;;;;;;;;;;17.40;58.20;;;;;;5023488;28;88295;-53
2022/07/13 04:07:38;;;;;;;;;;;17.40;58.20;;;;;;5024082;28;86365;-55
2022/07/13 04:10:04;;;;;;;;;;;17.40;58.30;;;;;;5024037;28;87031;-55
2022/07/13 04:12:29;;;;;;;;;;;17.30;58.90;;;;;;5023489;28;88173;-57
2022/07/13 04:14:55;;;;;;;;;;;17.30;58.30;;;;;;5023445;28;87823;-53
2022/07/13 04:17:20;;;;;;;;;;;17.30;58.30;;;;;;5023950;28;88330;-53
2022/07/13 04:19:46;;;;;;;;;;;17.30;58.20;;;;;;5026519;28;87863;-53
2022/07/13 04:22:11;;;;;;;;;;;17.40;58.20;;;;;;5023658;28;87614;-55
2022/07/13 04:24:37;;;;;;;;;;;17.30;58.20;;;;;;5023376;28;88044;-55
2022/07/13 04:27:03;;;;;;;;;;;17.30;58.20;;;;;;5023291;28;87179;-53
2022/07/13 04:29:28;;;;;;;;;;;17.30;58.20;;;;;;5023777;28;87459;-53
2022/07/13 04:31:54;;;;;;;;;;;17.20;58.20;;;;;;5023721;28;87858;-58
2022/07/13 04:34:19;;;;;;;;;;;17.20;58.30;;;;;;5023741;28;87192;-53
2022/07/13 04:36:45;;;;;;;;;;;17.20;58.30;;;;;;5023536;28;87457;-54
2022/07/13 04:39:11;;;;;;;;;;;17.30;58.30;;;;;;5022184;28;89484;-54
2022/07/13 04:41:37;;;;;;;;;;;17.20;58.20;;;;;;5026123;28;87468;-57
2022/07/13 04:44:03;;;;;;;;;;;17.20;59.00;;;;;;5023240;28;88019;-55
2022/07/13 04:46:28;;;;;;;;;;;17.20;58.30;;;;;;5023387;28;87223;-55
2022/07/13 04:48:54;;;;;;;;;;;17.20;58.40;;;;;;5023192;28;88135;-53
2022/07/13 04:51:19;;;;;;;;;;;17.20;58.40;;;;;;5023007;28;87675;-54
2022/07/13 04:53:45;;;;;;;;;;;17.20;58.20;;;;;;5023192;28;87109;-56
2022/07/13 04:56:11;;;;;;;;;;;17.20;58.30;;;;;;5023276;28;88658;-54
2022/07/13 04:58:37;;;;;;;;;;;17.20;58.30;;;;;;5022735;28;88171;-56
2022/07/13 05:01:06;;;;;;;;;;;17.20;58.30;;;;;;5023131;28;87184;-52
2022/07/13 05:03:32;;;;;;;;;;;17.30;58.20;;;;;;5024962;28;88948;-52
2022/07/13 05:05:57;;;;;;;;;;;17.30;58.20;;;;;;5023296;28;87248;-56
2022/07/13 05:08:23;;;;;;;;;;;17.30;58.20;;;;;;5022882;28;87572;-53
2022/07/13 05:10:49;;;;;;;;;;;17.20;58.20;;;;;;5022506;28;87940;-51
2022/07/13 05:13:14;;;;;;;;;;;17.30;58.30;;;;;;5023023;28;87139;-55
2022/07/13 05:15:40;;;;;;;;;;;17.20;58.20;;;;;;5022144;28;87498;-52
2022/07/13 05:18:05;;;;;;;;;;;17.20;58.40;;;;;;5022624;28;87663;-57
2022/07/13 05:20:31;;;;;;;;;;;17.10;58.60;;;;;;5023128;28;86406;-58
2022/07/13 05:22:57;;;;;;;;;;;17.20;58.50;;;;;;5022893;28;87054;-57
2022/07/13 05:25:22;;;;;;;;;;;17.20;58.50;;;;;;5025234;28;87051;-52
2022/07/13 05:27:48;;;;;;;;;;;17.20;58.40;;;;;;5022055;28;87946;-56
2022/07/13 05:30:13;;;;;;;;;;;17.20;58.60;;;;;;5020913;28;91175;-55
2022/07/13 05:32:39;;;;;;;;;;;17.20;58.60;;;;;;5022479;28;87441;-53
2022/07/13 05:35:04;;;;;;;;;;;17.20;58.70;;;;;;5022646;28;87592;-55
2022/07/13 05:37:30;;;;;;;;;;;17.20;58.70;;;;;;5022066;28;89206;-52
2022/07/13 05:39:55;;;;;;;;;;;17.20;58.70;;;;;;5022756;28;87159;-51
2022/07/13 05:42:21;;;;;;;;;;;17.20;58.80;;;;;;5022189;28;87579;-54
2022/07/13 05:44:47;;;;;;;;;;;17.20;58.80;;;;;;5025486;28;87329;-55
2022/07/13 05:47:12;;;;;;;;;;;17.20;58.90;;;;;;5022414;28;87114;-53
2022/07/13 05:49:38;;;;;;;;;;;17.20;59.00;;;;;;5021805;28;89370;-56
2022/07/13 05:52:04;;;;;;;;;;;17.20;58.90;;;;;;5021921;28;88024;-56
2022/07/13 05:54:30;;;;;;;;;;;17.20;58.90;;;;;;5022209;28;90028;-54
2022/07/13 05:56:56;;;;;;;;;;;17.20;58.80;;;;;;5021607;28;89482;-54
2022/07/13 05:59:22;;;;;;;;;;;17.20;58.90;;;;;;5022156;28;87168;-55
2022/07/13 06:01:47;;;;;;;;;;;17.20;59.00;;;;;;5022182;28;87325;-55
2022/07/13 06:04:12;;;;;;;;;;;17.20;59.10;;;;;;5021862;28;88327;-56
2022/07/13 06:06:38;;;;;;;;;;;17.20;59.20;;;;;;5025167;28;87146;-53
2022/07/13 06:09:04;;;;;;;;;;;17.10;59.10;;;;;;5022310;28;86540;-54
2022/07/13 06:11:29;;;;;;;;;;;17.20;59.10;;;;;;5021790;28;87152;-53
2022/07/13 06:13:55;;;;;;;;;;;17.20;59.00;;;;;;5022234;28;87540;-55
2022/07/13 06:16:20;;;;;;;;;;;17.20;59.00;;;;;;5020928;28;88902;-55
2022/07/13 06:18:46;;;;;;;;;;;17.20;59.00;;;;;;5022051;28;87149;-52
2022/07/13 06:21:11;;;;;;;;;;;17.20;59.00;;;;;;5021985;28;87433;-55
2022/07/13 06:23:37;;;;;;;;;;;17.20;59.10;;;;;;5021863;28;88028;-54
2022/07/13 06:26:03;;;;;;;;;;;17.20;59.10;;;;;;5022061;28;87506;-56
2022/07/13 06:28:28;;;;;;;;;;;17.20;59.10;;;;;;5027307;28;87454;-56
2022/07/13 06:30:54;;;;;;;;;;;17.20;59.20;;;;;;5025611;28;87195;-53
2022/07/13 06:33:20;;;;;;;;;;;17.20;59.80;;;;;;5025694;28;88741;-52
2022/07/13 06:35:45;;;;;;;;;;;17.20;59.60;;;;;;5024778;28;89178;-57
2022/07/13 06:38:11;;;;;;;;;;;17.20;59.60;;;;;;5025521;28;87113;-55
2022/07/13 06:40:36;;;;;;;;;;;17.20;59.30;;;;;;5024707;28;88035;-55
2022/07/13 06:43:02;;;;;;;;;;;17.20;59.40;;;;;;5024725;28;88152;-53
2022/07/13 06:45:29;;;;;;;;;;;17.20;59.40;;;;;;5025304;28;87123;-56
2022/07/13 06:47:54;;;;;;;;;;;17.20;59.30;;;;;;5024875;28;87350;-56
2022/07/13 06:50:20;;;;;;;;;;;17.20;59.50;;;;;;5027490;28;89361;-55
2022/07/13 06:52:46;;;;;;;;;;;17.30;59.40;;;;;;5025141;28;87040;-55
2022/07/13 06:55:11;;;;;;;;;;;17.20;59.50;;;;;;5024749;28;88079;-57
2022/07/13 06:57:37;;;;;;;;;;;17.20;59.50;;;;;;5025540;28;86406;-54
2022/07/13 07:00:03;;;;;;;;;;;17.20;59.40;;;;;;5024380;28;88045;-56
2022/07/13 07:02:29;;;;;;;;;;;17.20;59.40;;;;;;5024311;28;89393;-56
2022/07/13 07:04:55;;;;;;;;;;;17.20;59.60;;;;;;5024224;28;88093;-56
2022/07/13 07:07:21;;;;;;;;;;;17.20;59.60;;;;;;5024787;28;88462;-55
2022/07/13 07:09:46;;;;;;;;;;;17.20;59.40;;;;;;5024469;28;87971;-55
2022/07/13 07:12:12;;;;;;;;;;;17.20;59.40;;;;;;5027555;28;87104;-54
2022/07/13 07:14:37;;;;;;;;;;;17.20;59.30;;;;;;5024522;28;88061;-54
2022/07/13 07:17:03;;;;;;;;;;;17.30;59.40;;;;;;5024929;28;87106;-56
2022/07/13 07:19:28;;;;;;;;;;;17.30;59.60;;;;;;5024799;28;87327;-54
2022/07/13 07:21:54;;;;;;;;;;;17.20;59.30;;;;;;5024832;28;87208;-55
2022/07/13 07:24:20;;;;;;;;;;;17.20;59.50;;;;;;5024666;28;87131;-55
2022/07/13 07:26:47;;;;;;;;;;;17.20;59.70;;;;;;5024345;28;87517;-55
2022/07/13 07:29:13;;;;;;;;;;;17.20;59.50;;;;;;5023366;28;88933;-58
2022/07/13 07:31:38;;;;;;;;;;;17.30;59.60;;;;;;5024813;28;87062;-57
2022/07/13 07:34:04;;;;;;;;;;;17.20;59.70;;;;;;5027157;28;87625;-52
2022/07/13 07:36:29;;;;;;;;;;;17.30;59.90;;;;;;5024557;28;87199;-53
2022/07/13 07:38:55;;;;;;;;;;;17.30;59.50;;;;;;5023886;28;87522;-53
2022/07/13 07:41:20;;;;;;;;;;;17.30;59.70;;;;;;5023867;28;88203;-55
2022/07/13 07:43:46;;;;;;;;;;;17.30;60.00;;;;;;5024256;28;87071;-56
2022/07/13 07:46:12;;;;;;;;;;;17.20;59.80;;;;;;5024571;28;88981;-53
2022/07/13 07:48:37;;;;;;;;;;;17.30;59.70;;;;;;5023686;28;88161;-53
2022/07/13 07:51:04;;;;;;;;;;;17.30;59.80;;;;;;5024339;28;87010;-51
2022/07/13 07:53:29;;;;;;;;;;;17.30;59.70;;;;;;5026267;28;87923;-55
2022/07/13 07:55:56;;;;;;;;;;;17.30;59.50;;;;;;5023968;28;87027;-55
2022/07/13 07:58:21;;;;;;;;;;;17.30;59.60;;;;;;5023929;28;87569;-54
2022/07/13 08:00:47;;;;;;;;;;;17.30;59.50;;;;;;5023718;28;88317;-56
2022/07/13 08:03:12;;;;;;;;;;;17.30;59.60;;;;;;5023982;28;87129;-56
2022/07/13 08:05:38;;;;;;;;;;;17.30;59.50;;;;;;5023622;28;88888;-54
2022/07/13 08:08:04;;;;;;;;;;;17.30;59.70;;;;;;5023634;28;88008;-53
2022/07/13 08:10:30;;;;;;;;;;;17.40;59.50;;;;;;5024306;28;86409;-54
2022/07/13 08:12:56;;;;;;;;;;;17.40;59.60;;;;;;5023640;28;87074;-56
2022/07/13 08:15:22;;;;;;;;;;;17.40;59.50;;;;;;5026437;28;88045;-57
2022/07/13 08:17:48;;;;;;;;;;;17.40;59.50;;;;;;5023310;28;88000;-55
2022/07/13 08:20:13;;;;;;;;;;;17.40;59.60;;;;;;5023371;28;88339;-54
2022/07/13 08:22:39;;;;;;;;;;;17.40;59.30;;;;;;5023867;28;87159;-57
2022/07/13 08:25:04;;;;;;;;;;;17.40;59.50;;;;;;5023822;28;87507;-56
2022/07/13 08:27:30;;;;;;;;;;;17.40;59.50;;;;;;5023312;28;87198;-55
2022/07/13 08:29:56;;;;;;;;;;;17.40;59.40;;;;;;5023517;28;87142;-56
2022/07/13 08:32:21;;;;;;;;;;;17.40;59.30;;;;;;5023637;28;87066;-53
2022/07/13 08:40:18;;;;;;;;;;;17.40;59.30;;;;;;5023271;28;87297;-58
2022/07/13 08:42:43;;;;;;;;;;;17.40;59.40;;;;;;5022743;28;87899;-53
2022/07/13 08:45:09;;;;;;;;;;;17.50;59.20;;;;;;5023439;28;88330;-56
2022/07/13 08:47:35;;;;;;;;;;;17.50;59.40;;;;;;5021082;28;89667;-54
2022/07/13 08:50:08;;;;;;;;;;;17.50;59.20;;;;;;5020712;28;87182;-54
2022/07/13 08:52:35;;;;;;;;;;;17.50;59.10;;;;;;5022951;28;87414;-57
2022/07/13 08:55:03;;;;;;;;;;;17.50;59.30;;;;;;5022610;28;90054;-57
2022/07/13 08:57:40;;;;;;;;;;;17.50;59.10;;;;;;5022893;28;87142;-56
2022/07/13 09:00:09;;;;;;;;;;;17.50;59.10;;;;;;5026045;28;87378;-55
2022/07/13 09:02:35;;;;;;;;;;;17.50;58.90;;;;;;5022898;28;87335;-53
2022/07/13 09:05:04;;;;;;;;;;;17.60;59.00;;;;;;5023103;28;87383;-54
2022/07/13 09:07:30;;;;;;;;;;;17.60;59.10;;;;;;5022082;28;88147;-53
2022/07/13 09:09:58;;;;;;;;;;;17.60;58.90;;;;;;5023036;28;87246;-53
2022/07/13 09:12:25;;;;;;;;;;;17.60;58.90;;;;;;5022913;28;87424;-55
2022/07/13 09:14:56;;;;;;;;;;;17.60;58.90;;;;;;5022547;28;89337;-55
2022/07/13 09:17:27;;;;;;;;;;;17.60;58.70;;;;;;5022711;28;87023;-55
2022/07/13 09:19:53;;;;;;;;;;;17.60;58.70;;;;;;5022829;28;88158;-52
2022/07/13 09:22:18;;;;;;;;;;;17.70;58.60;;;;;;5025370;28;88031;-52
2022/07/13 09:24:48;;;;;;;;;;;17.70;58.50;;;;;;5023538;28;87609;-57
2022/07/13 09:27:14;;;;;;;;;;;17.70;58.50;;;;;;5022393;28;87911;-55
2022/07/13 09:29:40;;;;;;;;;;;17.70;58.50;;;;;;5022662;28;87030;-56
2022/07/13 09:32:10;;;;;;;;;;;17.70;58.60;;;;;;5021928;28;87948;-55
2022/07/13 09:34:51;;;;;;;;;;;17.80;58.70;;;;;;5022122;28;89311;-57
2022/07/13 09:37:18;;;;;;;;;;;17.80;58.70;;;;;;5022697;28;86795;-54
2022/07/13 09:39:55;;;;;;;;;;;17.70;58.90;;;;;;5022809;28;86881;-55
2022/07/13 09:42:31;;;;;;;;;;;17.80;59.40;;;;;;5022315;28;88036;-54
2022/07/13 09:47:49;;;;;;;;;;;17.80;58.80;;;;;;5021846;28;87079;-54
2022/07/13 09:50:17;;;;;;;;;;;17.80;58.60;;;;;;5022554;28;86269;-54
2022/07/13 09:52:44;;;;;;;;;;;17.80;58.70;;;;;;5022302;28;88458;-55
2022/07/13 09:55:10;;;;;;;;;;;17.80;58.60;;;;;;5021782;28;88341;-56
2022/07/13 09:57:38;;;;;;;;;;;17.90;58.70;;;;;;5021640;28;88068;-57
2022/07/13 10:00:06;;;;;;;;;;;17.90;58.70;;;;;;5022078;28;89790;-54
2022/07/13 10:02:31;;;;;;;;;;;17.90;58.60;;;;;;5024892;28;88099;-53
2022/07/13 10:04:57;;;;;;;;;;;17.90;58.60;;;;;;5028785;28;87142;-55
2022/07/13 10:07:23;;;;;;;;;;;17.90;58.70;;;;;;5025500;28;88087;-52
2022/07/13 10:09:49;;;;;;;;;;;18.00;58.80;;;;;;5025845;28;87121;-54
2022/07/13 10:12:14;;;;;;;;;;;18.00;58.70;;;;;;5026067;28;87466;-56
2022/07/13 10:14:41;;;;;;;;;;;18.00;58.70;;;;;;5026033;28;87229;-56
2022/07/13 10:17:09;;;;;;;;;;;18.10;58.70;;;;;;5025340;28;87041;-52
2022/07/13 10:19:40;;;;;;;;;;;18.00;58.70;;;;;;5025677;28;87206;-55
2022/07/13 10:22:09;;;;;;;;;;;18.00;58.70;;;;;;5024863;28;88921;-57
2022/07/13 10:24:35;;;;;;;;;;;18.10;58.70;;;;;;5025510;28;87059;-55
2022/07/13 10:27:21;;;;;;;;;;;18.10;58.70;;;;;;5028186;28;87377;-53
2022/07/13 10:29:50;;;;;;;;;;;18.10;58.60;;;;;;5025163;28;87118;-55
2022/07/13 10:32:16;;;;;;;;;;;18.10;58.60;;;;;;5025473;28;87267;-54
2022/07/13 10:35:01;;;;;;;;;;;18.10;58.70;;;;;;5024970;28;89571;-52
2022/07/13 10:37:27;;;;;;;;;;;18.10;58.70;;;;;;5025603;28;87095;-50
2022/07/13 10:40:08;;;;;;;;;;;18.20;58.80;;;;;;5026037;28;87438;-56
2022/07/13 10:42:52;;;;;;;;;;;18.20;58.80;;;;;;5024914;28;88097;-56
2022/07/13 10:48:03;;;;;;;;;;;18.20;58.70;;;;;;5024351;28;87947;-53
2022/07/13 10:50:38;;;;;;;;;;;18.20;58.60;;;;;;5027670;28;89347;-54
2022/07/13 10:53:03;;;;;;;;;;;18.30;58.60;;;;;;5025454;28;87390;-58
2022/07/13 10:55:30;;;;;;;;;;;18.30;58.50;;;;;;5024740;28;88058;-57
2022/07/13 10:57:56;;;;;;;;;;;18.30;58.40;;;;;;5024844;28;87011;-55
2022/07/13 11:00:36;;;;;;;;;;;18.40;58.50;;;;;;5024757;28;89187;-55
2022/07/13 11:03:03;;;;;;;;;;;18.40;58.70;;;;;;5024699;28;88241;-56
2022/07/13 11:05:30;;;;;;;;;;;18.40;58.60;;;;;;5025233;28;86390;-55
2022/07/13 11:07:56;;;;;;;;;;;18.40;58.70;;;;;;5023344;28;88444;-52
2022/07/13 11:10:23;;;;;;;;;;;18.40;58.50;;;;;;5024569;28;87712;-58
2022/07/13 11:13:09;;;;;;;;;;;18.50;58.40;;;;;;5026171;28;88055;-51
2022/07/13 11:15:54;;;;;;;;;;;18.50;58.40;;;;;;5024409;28;88016;-52
2022/07/13 11:18:22;;;;;;;;;;;18.60;58.40;;;;;;5024751;28;87088;-52
2022/07/13 11:20:55;;;;;;;;;;;18.60;58.40;;;;;;5024431;28;88899;-52
2022/07/13 11:26:26;;;;;;;;;;;18.60;58.50;;;;;;5024617;28;86995;-52
2022/07/13 11:28:58;;;;;;;;;;;18.60;58.40;;;;;;5019543;28;89771;-53
2022/07/13 11:31:24;;;;;;;;;;;18.60;58.40;;;;;;5024349;28;89281;-56
2022/07/13 11:33:53;;;;;;;;;;;18.70;58.40;;;;;;5024555;28;87012;-54
2022/07/13 11:36:22;;;;;;;;;;;18.70;58.20;;;;;;5026809;28;88812;-55
2022/07/13 11:38:48;;;;;;;;;;;18.70;58.10;;;;;;5023602;28;87964;-56
2022/07/13 11:41:20;;;;;;;;;;;18.70;58.00;;;;;;5024226;28;89872;-55
2022/07/13 11:43:46;;;;;;;;;;;18.70;58.30;;;;;;5023547;28;90104;-52
2022/07/13 11:46:12;;;;;;;;;;;18.80;58.30;;;;;;5024195;28;87026;-55
2022/07/13 11:48:38;;;;;;;;;;;18.80;58.30;;;;;;5023926;28;87491;-52
2022/07/13 11:51:09;;;;;;;;;;;18.80;58.30;;;;;;5023498;28;89304;-53
2022/07/13 11:53:35;;;;;;;;;;;18.80;58.20;;;;;;5024098;28;87830;-57
2022/07/13 11:56:04;;;;;;;;;;;18.80;58.10;;;;;;5027214;28;88070;-55
2022/07/13 11:58:31;;;;;;;;;;;18.90;58.20;;;;;;5024117;28;87052;-52
2022/07/13 12:00:58;;;;;;;;;;;18.90;58.10;;;;;;5023720;28;89068;-54
2022/07/13 12:03:33;;;;;;;;;;;18.90;58.00;;;;;;5023089;28;88134;-54
2022/07/13 12:05:59;;;;;;;;;;;19.00;58.20;;;;;;5023974;28;87160;-52
2022/07/13 12:08:25;;;;;;;;;;;18.90;58.10;;;;;;5024041;28;87288;-56
2022/07/13 12:10:51;;;;;;;;;;;19.00;58.10;;;;;;5023713;28;88028;-54
2022/07/13 12:13:17;;;;;;;;;;;19.00;58.10;;;;;;5023807;28;87188;-53
2022/07/13 12:15:43;;;;;;;;;;;19.00;58.20;;;;;;5023867;28;87364;-57
2022/07/13 12:18:10;;;;;;;;;;;19.00;58.10;;;;;;5026413;28;88019;-52
2022/07/13 12:20:37;;;;;;;;;;;19.00;58.00;;;;;;5024273;28;87421;-55
2022/07/13 12:23:05;;;;;;;;;;;19.10;58.00;;;;;;5023290;28;87262;-53
2022/07/13 12:25:34;;;;;;;;;;;19.10;57.90;;;;;;5023576;28;87478;-57
2022/07/13 12:28:00;;;;;;;;;;;19.10;58.00;;;;;;5022951;28;87836;-54
2022/07/13 12:30:27;;;;;;;;;;;19.10;58.00;;;;;;5022973;28;89627;-55
2022/07/13 12:32:59;;;;;;;;;;;19.10;58.00;;;;;;5023718;28;87088;-57
2022/07/13 12:35:28;;;;;;;;;;;19.10;58.00;;;;;;5023226;28;89025;-52
2022/07/13 12:37:54;;;;;;;;;;;19.20;58.00;;;;;;5023057;28;88015;-53
2022/07/13 12:40:39;;;;;;;;;;;19.20;57.90;;;;;;5026100;28;87212;-56
2022/07/13 12:43:04;;;;;;;;;;;19.20;57.80;;;;;;5023106;28;87762;-55
2022/07/13 12:45:32;;;;;;;;;;;19.30;57.80;;;;;;5024018;28;86516;-56
2022/07/13 12:47:58;;;;;;;;;;;19.30;57.80;;;;;;5023001;28;87138;-55
2022/07/13 12:50:30;;;;;;;;;;;19.30;57.50;;;;;;5022839;28;87232;-55
2022/07/13 12:52:59;;;;;;;;;;;19.40;57.80;;;;;;5022517;28;88202;-55
2022/07/13 12:55:25;;;;;;;;;;;19.40;57.80;;;;;;5023246;28;88500;-54
2022/07/13 12:57:51;;;;;;;;;;;19.40;57.70;;;;;;5022762;28;89692;-52
2022/07/13 13:00:21;;;;;;;;;;;19.40;57.50;;;;;;5022976;28;87079;-53
2022/07/13 13:02:47;;;;;;;;;;;19.50;57.60;;;;;;5025349;28;87395;-56
2022/07/13 13:05:12;;;;;;;;;;;19.50;57.60;;;;;;5023334;28;87132;-53
2022/07/13 13:07:39;;;;;;;;;;;19.50;57.70;;;;;;5023077;28;87506;-54
2022/07/13 13:10:05;;;;;;;;;;;19.50;57.80;;;;;;5022727;28;88666;-55
2022/07/13 13:12:31;;;;;;;;;;;19.50;57.40;;;;;;5023019;28;87113;-55
2022/07/13 13:14:58;;;;;;;;;;;19.50;57.60;;;;;;5023066;28;87495;-53
2022/07/13 13:17:24;;;;;;;;;;;19.50;57.60;;;;;;5021590;28;90520;-58
2022/07/13 13:19:50;;;;;;;;;;;19.60;57.70;;;;;;5022918;28;87118;-54
2022/07/13 13:22:15;;;;;;;;;;;19.60;57.60;;;;;;5022599;28;87376;-56
2022/07/13 13:24:41;;;;;;;;;;;19.60;57.50;;;;;;5025348;28;87310;-53
2022/07/13 13:27:07;;;;;;;;;;;19.70;57.50;;;;;;5022706;28;87491;-56
2022/07/13 13:32:17;;;;;;;;;;;19.70;57.50;;;;;;5022805;28;86885;-52
2022/07/13 13:34:42;;;;;;;;;;;19.70;57.60;;;;;;5022824;28;89081;-56
2022/07/13 13:37:08;;;;;;;;;;;19.80;57.40;;;;;;5021900;28;88451;-55
2022/07/13 13:39:33;;;;;;;;;;;19.80;57.40;;;;;;5022805;28;86991;-53
2022/07/13 13:41:59;;;;;;;;;;;19.80;57.60;;;;;;5022075;28;87793;-57
2022/07/13 13:44:24;;;;;;;;;;;19.80;57.40;;;;;;5022095;28;88222;-55
2022/07/13 13:46:50;;;;;;;;;;;19.80;57.40;;;;;;5024619;28;87110;-51
2022/07/13 13:49:15;;;;;;;;;;;19.80;57.90;;;;;;5022136;28;88195;-54
2022/07/13 13:51:41;;;;;;;;;;;19.90;57.50;;;;;;5022232;28;87134;-56
2022/07/13 13:54:07;;;;;;;;;;;19.90;57.60;;;;;;5022666;28;87274;-55
2022/07/13 13:56:32;;;;;;;;;;;19.90;57.70;;;;;;5022132;28;88220;-54
2022/07/13 13:58:58;;;;;;;;;;;20.00;57.50;;;;;;5022650;28;86548;-57
2022/07/13 14:01:23;;;;;;;;;;;20.00;57.40;;;;;;5022255;28;86938;-53
2022/07/13 14:03:49;;;;;;;;;;;20.00;57.60;;;;;;5021856;28;88568;-58
2022/07/13 14:06:15;;;;;;;;;;;20.10;57.40;;;;;;5024497;28;88124;-55
2022/07/13 14:08:43;;;;;;;;;;;20.10;57.60;;;;;;5021851;28;88033;-56
2022/07/13 14:11:10;;;;;;;;;;;20.10;57.50;;;;;;5022080;28;87180;-54
2022/07/13 14:13:35;;;;;;;;;;;20.10;57.50;;;;;;5022287;28;88739;-54
2022/07/13 14:16:01;;;;;;;;;;;20.10;57.50;;;;;;5021744;28;88160;-53
2022/07/13 14:18:27;;;;;;;;;;;20.20;57.50;;;;;;5022025;28;87052;-52
2022/07/13 14:20:53;;;;;;;;;;;20.20;57.30;;;;;;5022098;28;87430;-55
2022/07/13 14:23:19;;;;;;;;;;;20.30;57.50;;;;;;5022326;28;87413;-58
2022/07/13 14:25:44;;;;;;;;;;;20.30;57.20;;;;;;5022016;28;87142;-57
2022/07/13 14:28:10;;;;;;;;;;;20.30;56.80;;;;;;5024677;28;87660;-53
2022/07/13 14:30:35;;;;;;;;;;;20.30;57.30;;;;;;5021535;28;88085;-53